Time;durP1;ratioP1;P1;durP2;ratioP2;P2;SDS_P1;SDS_P2;PMS_P1;PMS_P2;Temp;Humidity;BMP_temperature;BMP_pressure;BME280_temperature;BME280_humidity;BME280_pressure;Samples;Min_cycle;Max_cycle;Signal;HPM_P1;HPM_P2
2022/05/10 00:01:00;;;;;;;6.43;4.40;;;15.70;64.60;;;;;;5033676;28;20013;-70
2022/05/10 00:03:35;;;;;;;8.90;3.70;;;15.70;64.60;;;;;;5024542;28;20469;-70
2022/05/10 00:06:02;;;;;;;6.38;4.10;;;15.60;64.70;;;;;;5024478;28;20064;-69
2022/05/10 00:08:28;;;;;;;6.45;3.60;;;15.60;64.70;;;;;;5031525;28;20466;-69
2022/05/10 00:10:56;;;;;;;6.90;3.38;;;15.60;65.00;;;;;;5030606;28;20061;-69
2022/05/10 00:13:22;;;;;;;8.63;4.03;;;15.60;65.00;;;;;;5027348;28;20028;-69
2022/05/10 00:15:48;;;;;;;8.98;4.47;;;15.50;65.00;;;;;;5033138;28;20091;-69
2022/05/10 00:18:16;;;;;;;5.65;3.58;;;15.50;65.00;;;;;;5031513;28;20033;-69
2022/05/10 00:20:42;;;;;;;6.88;3.70;;;15.50;65.00;;;;;;5032474;28;20030;-69
2022/05/10 00:23:08;;;;;;;7.47;3.90;;;15.50;65.10;;;;;;5031604;28;20030;-69
2022/05/10 00:25:33;;;;;;;7.28;3.95;;;15.40;65.30;;;;;;5031821;28;20048;-68
2022/05/10 00:28:00;;;;;;;6.05;3.78;;;15.40;65.40;;;;;;5031537;28;20061;-69
2022/05/10 00:30:25;;;;;;;9.43;4.10;;;15.40;65.50;;;;;;5032917;28;20038;-70
2022/05/10 00:32:51;;;;;;;5.50;3.65;;;15.40;65.60;;;;;;5030187;28;20044;-70
2022/05/10 00:35:26;;;;;;;6.00;3.42;;;15.40;65.70;;;;;;5015012;28;20442;-70
2022/05/10 00:37:54;;;;;;;4.78;3.38;;;15.30;65.90;;;;;;5031572;28;20025;-70
2022/05/10 00:40:23;;;;;;;6.75;3.47;;;15.30;65.80;;;;;;5031258;28;20079;-70
2022/05/10 00:43:01;;;;;;;9.48;4.05;;;15.30;66.00;;;;;;5030218;28;20125;-70
2022/05/10 00:45:44;;;;;;;7.20;3.90;;;15.20;65.90;;;;;;5031350;28;20036;-70
2022/05/10 00:48:15;;;;;;;6.32;3.72;;;15.20;66.20;;;;;;5026023;28;20036;-70
2022/05/10 00:50:53;;;;;;;5.85;3.78;;;15.20;66.30;;;;;;5033019;28;20022;-69
2022/05/10 00:53:24;;;;;;;7.03;4.25;;;15.20;66.40;;;;;;5030631;28;20033;-69
2022/05/10 00:56:14;;;;;;;6.93;4.10;;;15.20;66.20;;;;;;5031614;28;20029;-69
2022/05/10 00:58:45;;;;;;;6.30;3.78;;;15.10;66.40;;;;;;5029899;28;20083;-69
2022/05/10 01:01:16;;;;;;;5.97;3.50;;;15.10;66.50;;;;;;5022055;28;20025;-69
2022/05/10 01:03:53;;;;;;;5.75;3.92;;;15.00;66.80;;;;;;5030620;28;20033;-68
2022/05/10 01:06:26;;;;;;;6.07;4.13;;;15.00;66.70;;;;;;5012523;28;20042;-69
2022/05/10 01:09:32;;;;;;;8.45;3.70;;;15.00;67.00;;;;;;5029430;28;20053;-69
2022/05/10 01:12:16;;;;;;;6.80;3.85;;;15.00;67.00;;;;;;5029824;28;20030;-69
2022/05/10 01:14:50;;;;;;;7.38;4.07;;;15.00;67.20;;;;;;5029739;28;20108;-69
2022/05/10 01:17:16;;;;;;;6.00;3.92;;;14.90;67.30;;;;;;5012197;28;20026;-69
2022/05/10 01:19:44;;;;;;;8.70;3.72;;;14.90;67.30;;;;;;5019015;28;20021;-68
2022/05/10 01:22:30;;;;;;;7.43;4.22;;;14.90;67.50;;;;;;5030165;28;20029;-69
2022/05/10 01:25:02;;;;;;;4.90;3.55;;;14.80;67.70;;;;;;5031776;28;20033;-69
2022/05/10 01:27:45;;;;;;;6.43;4.07;;;14.80;67.70;;;;;;5030132;28;20524;-69
2022/05/10 01:30:22;;;;;;;5.40;3.78;;;14.80;67.70;;;;;;5031274;28;20127;-69
2022/05/10 01:35:58;;;;;;;7.50;3.88;;;14.70;68.00;;;;;;5011882;28;20030;-69
2022/05/10 01:38:47;;;;;;;6.53;3.80;;;14.70;68.00;;;;;;5015607;28;20040;-69
2022/05/10 01:41:28;;;;;;;8.77;4.50;;;14.70;68.00;;;;;;5031563;28;20029;-69
2022/05/10 01:44:17;;;;;;;7.63;4.13;;;14.60;68.10;;;;;;5011863;28;20117;-69
2022/05/10 01:46:46;;;;;;;5.78;3.65;;;14.60;68.20;;;;;;5021103;28;20031;-70
2022/05/10 01:49:25;;;;;;;8.43;4.10;;;14.60;68.10;;;;;;5031652;28;20041;-69
2022/05/10 01:51:58;;;;;;;15.35;5.15;;;14.50;68.20;;;;;;5029886;28;20108;-69
2022/05/10 01:54:39;;;;;;;5.38;3.90;;;14.50;68.30;;;;;;5031044;28;20056;-68
2022/05/10 01:57:08;;;;;;;6.25;4.10;;;14.50;68.50;;;;;;5012760;28;20046;-68
2022/05/10 01:59:34;;;;;;;5.68;4.38;;;14.50;68.40;;;;;;5031598;28;20037;-68
2022/05/10 02:02:02;;;;;;;6.30;3.80;;;14.50;68.50;;;;;;5028464;28;20021;-68
2022/05/10 02:04:33;;;;;;;6.47;3.90;;;14.40;68.70;;;;;;5030643;28;20059;-68
2022/05/10 02:07:10;;;;;;;8.73;4.20;;;14.50;68.90;;;;;;5029164;28;20021;-69
2022/05/10 02:09:57;;;;;;;6.95;4.03;;;14.40;68.90;;;;;;5023570;28;20048;-69
2022/05/10 02:12:29;;;;;;;6.75;4.07;;;14.40;69.20;;;;;;5027527;28;20018;-70
2022/05/10 02:15:06;;;;;;;6.22;3.75;;;14.40;68.90;;;;;;5025138;28;20033;-69
2022/05/10 02:17:53;;;;;;;6.22;4.07;;;14.30;69.10;;;;;;5029455;28;20060;-70
2022/05/10 02:20:24;;;;;;;5.25;3.78;;;14.30;69.30;;;;;;5030620;28;20037;-69
2022/05/10 02:22:59;;;;;;;6.18;4.13;;;14.30;69.40;;;;;;5029941;28;20047;-69
2022/05/10 02:25:36;;;;;;;8.10;3.83;;;14.30;69.50;;;;;;5025211;28;20105;-69
2022/05/10 02:28:11;;;;;;;6.35;4.07;;;14.20;69.60;;;;;;5026567;28;20064;-69
2022/05/10 02:30:37;;;;;;;7.82;4.35;;;14.20;69.70;;;;;;5031134;28;20033;-69
2022/05/10 02:33:06;;;;;;;5.10;4.00;;;14.20;69.70;;;;;;5021369;28;20034;-69
2022/05/10 02:35:35;;;;;;;7.10;3.90;;;14.20;69.80;;;;;;5030025;28;20033;-69
2022/05/10 02:38:02;;;;;;;5.25;3.58;;;14.20;69.70;;;;;;5021994;28;20373;-70
2022/05/10 02:40:28;;;;;;;6.45;3.72;;;14.20;69.80;;;;;;5011381;28;20120;-69
2022/05/10 02:42:53;;;;;;;7.43;4.00;;;14.10;69.80;;;;;;5024648;28;20354;-69
2022/05/10 02:45:19;;;;;;;6.78;4.18;;;14.10;69.80;;;;;;5031155;28;20064;-69
2022/05/10 02:47:47;;;;;;;5.78;4.03;;;14.20;69.90;;;;;;5029655;28;20022;-69
2022/05/10 02:50:33;;;;;;;7.38;4.00;;;14.10;70.00;;;;;;5030234;28;20155;-69
2022/05/10 02:53:00;;;;;;;7.68;4.00;;;14.10;70.20;;;;;;5018924;28;20036;-69
2022/05/10 02:55:38;;;;;;;7.82;4.28;;;14.10;70.10;;;;;;5030790;28;20080;-69
2022/05/10 02:58:14;;;;;;;8.07;3.97;;;14.00;70.10;;;;;;5029525;28;20030;-69
2022/05/10 03:00:40;;;;;;;7.53;4.70;;;14.00;70.30;;;;;;5030804;28;20132;-70
2022/05/10 03:03:09;;;;;;;7.63;4.47;;;14.00;70.30;;;;;;5029190;28;20091;-70
2022/05/10 03:05:34;;;;;;;8.70;4.43;;;14.00;70.60;;;;;;5030643;28;20030;-69
2022/05/10 03:08:00;;;;;;;11.25;4.35;;;14.00;70.50;;;;;;5021078;28;20041;-69
2022/05/10 03:10:25;;;;;;;6.43;4.32;;;13.90;70.40;;;;;;5009769;28;20026;-68
2022/05/10 03:12:51;;;;;;;6.13;4.22;;;14.00;70.40;;;;;;5016862;28;20117;-68
2022/05/10 03:15:16;;;;;;;7.60;4.80;;;13.90;70.40;;;;;;5030575;28;20033;-68
2022/05/10 03:17:42;;;;;;;7.28;4.72;;;13.90;70.50;;;;;;5029648;28;20021;-68
2022/05/10 03:20:08;;;;;;;8.80;4.20;;;13.90;70.60;;;;;;5013548;28;20373;-69
2022/05/10 03:22:33;;;;;;;5.93;4.20;;;13.90;70.70;;;;;;5028846;28;20059;-68
2022/05/10 03:24:59;;;;;;;7.80;4.45;;;13.90;70.70;;;;;;5030692;28;20029;-69
2022/05/10 03:27:24;;;;;;;6.65;4.03;;;13.90;70.70;;;;;;5029454;28;20029;-70
2022/05/10 03:29:51;;;;;;;8.30;4.00;;;13.80;70.80;;;;;;5029216;28;20045;-69
2022/05/10 03:32:16;;;;;;;6.35;3.92;;;13.90;71.00;;;;;;5028830;28;20132;-69
2022/05/10 03:34:54;;;;;;;5.43;4.18;;;13.80;70.90;;;;;;5031562;28;20116;-69
2022/05/10 03:37:30;;;;;;;5.20;3.88;;;13.80;70.90;;;;;;5032916;28;20042;-68
2022/05/10 03:39:56;;;;;;;7.45;4.50;;;13.80;71.00;;;;;;5033520;28;20143;-69
2022/05/10 03:42:22;;;;;;;7.05;4.53;;;13.70;71.10;;;;;;5032895;28;20039;-69
2022/05/10 03:44:50;;;;;;;7.32;4.07;;;13.70;71.10;;;;;;5033333;28;20025;-69
2022/05/10 03:47:17;;;;;;;6.07;3.70;;;13.70;71.30;;;;;;5030888;28;20363;-69
2022/05/10 03:49:43;;;;;;;15.40;4.38;;;13.70;71.30;;;;;;5014452;28;20053;-69
2022/05/10 03:52:09;;;;;;;7.50;4.75;;;13.70;71.30;;;;;;5028013;28;20043;-69
2022/05/10 03:54:34;;;;;;;6.03;4.30;;;13.70;71.90;;;;;;5024941;28;20037;-67
2022/05/10 03:57:00;;;;;;;6.25;4.25;;;13.70;71.30;;;;;;5028399;28;20026;-69
2022/05/10 03:59:26;;;;;;;6.63;4.80;;;13.70;71.40;;;;;;5014387;28;20037;-70
2022/05/10 04:01:51;;;;;;;8.40;4.50;;;13.70;71.40;;;;;;5014875;28;20038;-70
2022/05/10 04:04:17;;;;;;;9.40;4.72;;;13.70;71.40;;;;;;5031795;28;20018;-70
2022/05/10 04:06:42;;;;;;;7.78;4.38;;;13.70;71.50;;;;;;5032611;28;20435;-70
2022/05/10 04:09:08;;;;;;;9.13;4.75;;;13.80;71.70;;;;;;5031678;28;20076;-70
2022/05/10 04:11:34;;;;;;;8.43;5.10;;;13.70;71.70;;;;;;5032198;28;20498;-70
2022/05/10 04:14:00;;;;;;;7.30;4.63;;;13.80;71.60;;;;;;5031126;28;20037;-75
2022/05/10 04:16:26;;;;;;;7.28;4.35;;;13.70;71.60;;;;;;5031758;28;20511;-75
2022/05/10 04:18:51;;;;;;;9.13;4.25;;;13.70;71.70;;;;;;5031935;28;20021;-74
2022/05/10 04:21:17;;;;;;;7.03;4.45;;;13.80;71.90;;;;;;5033111;28;20029;-70
2022/05/10 04:23:42;;;;;;;8.10;4.75;;;13.80;71.80;;;;;;5030994;28;20064;-71
2022/05/10 04:26:13;;;;;;;7.68;4.80;;;13.80;71.70;;;;;;5026664;28;20049;-71
2022/05/10 04:28:40;;;;;;;9.07;4.85;;;13.70;71.70;;;;;;5030450;28;20040;-71
2022/05/10 04:31:06;;;;;;;8.90;4.38;;;13.80;71.90;;;;;;5016434;28;20489;-71
2022/05/10 04:33:32;;;;;;;7.13;4.25;;;13.80;71.90;;;;;;5023601;28;20053;-71
2022/05/10 04:35:58;;;;;;;7.75;5.15;;;13.80;72.20;;;;;;5032019;28;20114;-71
2022/05/10 04:38:23;;;;;;;7.40;4.50;;;13.70;72.10;;;;;;5029604;28;20075;-70
2022/05/10 04:43:35;;;;;;;13.20;6.05;;;13.80;72.40;;;;;;5021928;28;20551;-70
2022/05/10 04:46:01;;;;;;;8.02;4.80;;;13.80;72.30;;;;;;5028836;28;20014;-71
2022/05/10 04:48:27;;;;;;;8.40;5.45;;;13.80;72.30;;;;;;5029966;28;20626;-71
2022/05/10 04:50:53;;;;;;;9.60;4.68;;;13.90;72.40;;;;;;5031192;28;20029;-71
2022/05/10 04:53:19;;;;;;;14.43;5.57;;;13.80;72.50;;;;;;5030699;28;20025;-70
2022/05/10 04:55:44;;;;;;;10.10;4.97;;;13.90;72.40;;;;;;5027506;28;20238;-70
2022/05/10 04:58:10;;;;;;;10.02;5.18;;;13.90;72.30;;;;;;5021288;28;20095;-71
2022/05/10 05:00:35;;;;;;;12.23;5.75;;;14.00;72.30;;;;;;5032604;28;20034;-68
2022/05/10 05:03:00;;;;;;;11.27;6.10;;;14.00;72.10;;;;;;5029515;28;20025;-69
2022/05/10 05:05:26;;;;;;;12.50;5.70;;;14.00;72.10;;;;;;5028266;28;20099;-70
2022/05/10 05:07:51;;;;;;;8.90;5.15;;;14.10;72.20;;;;;;5018662;28;20515;-70
2022/05/10 05:10:17;;;;;;;16.77;4.75;;;14.10;72.10;;;;;;5031333;28;20040;-70
2022/05/10 05:12:42;;;;;;;9.18;4.82;;;14.20;72.30;;;;;;5026686;28;20654;-70
2022/05/10 05:15:11;;;;;;;12.15;5.47;;;14.20;72.30;;;;;;5016131;28;20099;-74
2022/05/10 05:17:37;;;;;;;10.32;5.47;;;14.30;72.30;;;;;;5030163;28;20026;-70
2022/05/10 05:20:04;;;;;;;11.82;5.15;;;14.30;72.20;;;;;;5031115;28;20040;-70
2022/05/10 05:22:30;;;;;;;9.43;4.60;;;14.40;72.10;;;;;;5027121;28;20060;-72
2022/05/10 05:24:56;;;;;;;12.73;5.97;;;14.40;72.40;;;;;;5026327;28;20108;-70
2022/05/10 05:27:21;;;;;;;8.98;5.13;;;14.50;72.20;;;;;;5030002;28;20141;-70
2022/05/10 05:29:47;;;;;;;7.82;5.20;;;14.60;72.40;;;;;;5032125;28;20068;-70
2022/05/10 05:32:14;;;;;;;20.67;6.35;;;14.70;72.40;;;;;;5029095;28;20051;-74
2022/05/10 05:34:40;;;;;;;8.88;5.22;;;14.70;72.20;;;;;;5023895;28;20381;-70
2022/05/10 05:39:49;;;;;;;10.97;5.00;;;14.90;72.30;;;;;;5030327;28;20396;-71
2022/05/10 05:42:17;;;;;;;8.20;4.93;;;15.00;72.50;;;;;;5026393;28;20026;-70
2022/05/10 05:44:45;;;;;;;7.55;4.93;;;15.10;72.60;;;;;;5022942;28;20108;-70
2022/05/10 05:47:11;;;;;;;12.45;5.43;;;15.20;72.40;;;;;;5028550;28;20022;-71
2022/05/10 05:49:37;;;;;;;7.10;4.60;;;15.30;72.40;;;;;;5030043;28;20048;-71
2022/05/10 05:52:04;;;;;;;8.43;4.88;;;15.40;72.20;;;;;;5028751;28;20112;-71
2022/05/10 05:54:31;;;;;;;8.73;4.47;;;15.50;72.00;;;;;;5021998;28;20029;-71
2022/05/10 05:57:02;;;;;;;10.45;4.72;;;15.50;71.40;;;;;;5022383;28;20064;-71
2022/05/10 05:59:28;;;;;;;5.78;4.40;;;15.70;71.80;;;;;;5012247;28;20645;-71
2022/05/10 06:01:53;;;;;;;9.88;5.03;;;15.80;71.70;;;;;;5016541;28;20128;-71
2022/05/10 06:04:19;;;;;;;13.23;5.60;;;15.90;71.40;;;;;;5012717;28;20030;-70
2022/05/10 06:06:44;;;;;;;10.40;5.22;;;16.00;71.50;;;;;;5010552;28;20088;-70
2022/05/10 06:09:10;;;;;;;8.32;4.63;;;16.10;71.20;;;;;;5028931;28;20049;-71
2022/05/10 06:11:35;;;;;;;11.85;4.95;;;16.20;71.10;;;;;;5030129;28;20425;-70
2022/05/10 06:14:01;;;;;;;8.93;4.60;;;16.30;71.70;;;;;;5029986;28;20029;-70
2022/05/10 06:16:27;;;;;;;8.80;5.35;;;16.50;71.20;;;;;;5029862;28;20026;-70
2022/05/10 06:18:53;;;;;;;12.82;5.20;;;16.60;70.90;;;;;;5029759;28;20440;-71
2022/05/10 06:21:18;;;;;;;12.88;5.20;;;16.70;70.80;;;;;;5024739;28;20029;-71
2022/05/10 06:23:43;;;;;;;14.73;6.47;;;16.80;70.80;;;;;;5029405;28;20053;-71
2022/05/10 06:26:09;;;;;;;10.35;5.20;;;16.90;70.60;;;;;;5024154;28;20030;-70
2022/05/10 06:28:35;;;;;;;9.02;4.95;;;17.10;69.60;;;;;;5020157;28;20033;-70
2022/05/10 06:31:02;;;;;;;9.15;4.90;;;17.20;69.30;;;;;;5030232;28;20492;-71
2022/05/10 06:33:28;;;;;;;8.52;4.80;;;17.20;69.90;;;;;;5023271;28;20021;-71
2022/05/10 06:35:53;;;;;;;8.27;4.53;;;17.40;70.20;;;;;;5028575;28;20036;-71
2022/05/10 06:38:27;;;;;;;13.23;4.22;;;17.50;68.90;;;;;;5029327;28;20018;-69
2022/05/10 06:40:54;;;;;;;7.90;4.67;;;17.60;69.20;;;;;;5029905;28;20029;-69
2022/05/10 06:43:20;;;;;;;9.45;4.57;;;17.60;69.00;;;;;;5028093;28;20107;-69
2022/05/10 06:45:47;;;;;;;10.40;5.43;;;17.80;69.40;;;;;;5031510;28;20030;-69
2022/05/10 06:48:13;;;;;;;11.93;4.45;;;17.90;68.50;;;;;;5026544;28;20120;-69
2022/05/10 06:50:39;;;;;;;9.60;5.50;;;18.00;68.00;;;;;;5015729;28;20026;-69
2022/05/10 06:53:05;;;;;;;7.75;4.30;;;18.10;67.80;;;;;;5023480;28;20063;-71
2022/05/10 06:55:32;;;;;;;8.05;4.72;;;18.20;67.80;;;;;;5026421;28;20048;-71
2022/05/10 06:58:01;;;;;;;8.90;5.25;;;18.30;67.90;;;;;;5029113;28;20030;-71
2022/05/10 07:00:27;;;;;;;13.23;5.18;;;18.40;67.50;;;;;;5018248;28;20029;-72
2022/05/10 07:02:53;;;;;;;10.38;4.53;;;18.50;67.30;;;;;;5023410;28;20067;-72
2022/05/10 07:05:20;;;;;;;10.00;4.80;;;18.50;66.70;;;;;;5024461;28;20108;-72
2022/05/10 07:07:45;;;;;;;11.93;4.72;;;18.60;66.50;;;;;;5024862;28;20048;-75
2022/05/10 07:10:12;;;;;;;8.00;4.72;;;18.70;66.80;;;;;;5015326;28;20038;-71
2022/05/10 07:12:40;;;;;;;8.10;3.88;;;18.70;66.40;;;;;;5030869;28;20025;-72
2022/05/10 07:15:09;;;;;;;10.50;4.60;;;18.70;66.70;;;;;;5033442;28;20397;-72
2022/05/10 07:17:35;;;;;;;9.02;4.30;;;18.80;66.80;;;;;;5030806;28;20448;-75
2022/05/10 07:20:02;;;;;;;9.70;4.28;;;18.80;66.70;;;;;;5023840;28;20025;-72
2022/05/10 07:22:28;;;;;;;9.02;4.30;;;18.90;67.00;;;;;;5029475;28;20017;-72
2022/05/10 07:24:54;;;;;;;8.32;4.38;;;18.90;66.30;;;;;;5025305;28;20358;-72
2022/05/10 07:27:19;;;;;;;8.23;4.15;;;19.00;66.10;;;;;;5030447;28;20032;-72
2022/05/10 07:29:45;;;;;;;7.10;4.68;;;19.10;65.90;;;;;;5026806;28;20124;-71
2022/05/10 07:32:12;;;;;;;7.18;3.85;;;19.20;66.00;;;;;;5024741;28;20017;-72
2022/05/10 07:34:38;;;;;;;9.02;4.70;;;19.20;65.70;;;;;;5033319;28;20030;-72
2022/05/10 07:37:03;;;;;;;15.18;4.40;;;19.30;65.70;;;;;;5029814;28;20381;-73
2022/05/10 07:39:29;;;;;;;8.57;4.30;;;19.40;66.20;;;;;;5030164;28;20167;-72
2022/05/10 07:41:54;;;;;;;8.23;4.15;;;19.60;65.30;;;;;;5027601;28;20059;-73
2022/05/10 07:44:23;;;;;;;11.40;4.35;;;19.60;65.80;;;;;;5027105;28;20029;-72
2022/05/10 07:46:49;;;;;;;8.05;4.38;;;19.70;65.00;;;;;;5032266;28;20021;-72
2022/05/10 07:49:15;;;;;;;9.05;4.88;;;19.80;64.70;;;;;;5031571;28;20044;-72
2022/05/10 07:51:41;;;;;;;8.05;4.10;;;19.90;64.50;;;;;;5031422;28;20375;-72
2022/05/10 07:54:07;;;;;;;6.90;4.22;;;20.00;64.60;;;;;;5034430;28;20040;-72
2022/05/10 07:56:32;;;;;;;7.60;4.18;;;20.10;64.40;;;;;;5036378;28;20469;-76
2022/05/10 07:58:58;;;;;;;8.43;3.80;;;20.30;64.50;;;;;;5034464;28;20405;-75
2022/05/10 08:01:25;;;;;;;7.00;4.22;;;20.40;63.60;;;;;;5019874;28;20128;-76
2022/05/10 08:03:51;;;;;;;6.82;3.53;;;20.60;63.50;;;;;;5034036;28;20025;-75
2022/05/10 08:06:17;;;;;;;6.03;3.50;;;20.60;62.90;;;;;;5037044;28;20025;-75
2022/05/10 08:08:43;;;;;;;6.18;3.80;;;20.80;62.70;;;;;;5037703;28;20396;-76
2022/05/10 08:11:09;;;;;;;7.70;4.30;;;20.80;62.40;;;;;;5037608;28;20033;-75
2022/05/10 08:13:37;;;;;;;8.25;3.63;;;21.00;61.50;;;;;;5026857;28;20052;-76
2022/05/10 08:16:03;;;;;;;7.18;4.30;;;21.10;61.80;;;;;;5043605;28;20061;-76
2022/05/10 08:18:29;;;;;;;6.03;3.88;;;21.20;62.10;;;;;;5041915;28;20037;-74
2022/05/10 08:20:57;;;;;;;5.97;3.35;;;21.30;62.20;;;;;;5036151;28;20505;-75
2022/05/10 08:23:26;;;;;;;8.18;3.72;;;21.50;61.80;;;;;;5033276;28;20033;-75
2022/05/10 08:25:54;;;;;;;6.93;3.50;;;21.60;61.40;;;;;;5016437;28;20198;-75
2022/05/10 08:28:19;;;;;;;8.70;3.60;;;21.70;61.10;;;;;;5030739;28;20116;-77
2022/05/10 08:30:46;;;;;;;6.05;3.17;;;21.80;60.90;;;;;;5037257;28;20072;-77
2022/05/10 08:33:17;;;;;;;9.57;3.75;;;21.90;60.80;;;;;;5025986;28;20097;-72
2022/05/10 08:35:43;;;;;;;9.20;3.67;;;22.00;59.80;;;;;;5016767;28;20118;-72
2022/05/10 08:38:08;;;;;;;6.72;3.55;;;22.10;59.50;;;;;;5017699;28;20104;-73
2022/05/10 08:40:44;;;;;;;9.77;4.03;;;22.10;59.50;;;;;;5028293;28;20060;-73
2022/05/10 08:43:22;;;;;;;5.35;3.45;;;22.30;59.30;;;;;;5017715;28;20034;-74
2022/05/10 08:45:48;;;;;;;6.63;3.53;;;22.40;59.10;;;;;;5029659;28;20121;-74
2022/05/10 08:48:15;;;;;;;7.65;3.45;;;22.50;59.00;;;;;;5017288;28;20109;-73
2022/05/10 08:50:44;;;;;;;7.28;3.30;;;22.50;58.50;;;;;;5028128;28;20064;-73
2022/05/10 08:53:11;;;;;;;5.78;3.15;;;22.60;58.20;;;;;;5029551;28;20033;-74
2022/05/10 08:55:41;;;;;;;10.57;3.38;;;22.70;58.20;;;;;;5036705;28;20033;-74
2022/05/10 08:58:29;;;;;;;9.35;3.35;;;22.70;56.60;;;;;;5030561;28;20024;-74
2022/05/10 09:01:00;;;;;;;10.40;4.78;;;22.80;56.70;;;;;;5030863;28;20103;-73
2022/05/10 09:03:42;;;;;;;8.55;3.25;;;22.90;57.20;;;;;;5026264;28;20111;-73
2022/05/10 09:06:34;;;;;;;6.38;2.92;;;23.00;56.60;;;;;;5031908;28;20037;-73
2022/05/10 09:09:16;;;;;;;6.32;3.20;;;23.00;56.30;;;;;;5027632;28;20556;-73
2022/05/10 09:11:51;;;;;;;4.57;2.75;;;23.10;55.50;;;;;;5029179;28;20040;-73
2022/05/10 09:14:23;;;;;;;8.57;2.97;;;23.10;55.60;;;;;;5014398;28;20026;-68
2022/05/10 09:16:49;;;;;;;6.25;2.50;;;23.20;55.60;;;;;;5036258;28;20034;-68
2022/05/10 09:19:17;;;;;;;7.35;2.88;;;23.30;54.70;;;;;;5028501;28;20029;-69
2022/05/10 09:21:50;;;;;;;6.22;2.63;;;23.40;55.10;;;;;;5042806;28;20040;-68
2022/05/10 09:24:45;;;;;;;5.28;2.58;;;23.40;53.80;;;;;;5012220;28;20034;-68
2022/05/10 09:27:12;;;;;;;4.40;2.40;;;23.40;53.70;;;;;;5020635;28;20033;-68
2022/05/10 09:29:47;;;;;;;5.45;2.97;;;23.50;53.40;;;;;;5029365;28;20037;-68
2022/05/10 09:35:27;;;;;;;8.80;2.67;;;23.60;53.10;;;;;;5025041;28;20034;-68
2022/05/10 09:38:01;;;;;;;5.32;2.17;;;23.60;52.40;;;;;;5033301;28;20080;-68
2022/05/10 09:40:34;;;;;;;10.07;2.75;;;23.70;52.80;;;;;;5024011;28;20485;-68
2022/05/10 09:43:22;;;;;;;5.03;2.33;;;23.70;53.00;;;;;;5028552;28;20033;-69
2022/05/10 09:46:08;;;;;;;4.07;2.47;;;23.70;52.30;;;;;;5028723;28;20028;-69
2022/05/10 09:48:35;;;;;;;6.97;2.65;;;23.80;52.50;;;;;;5032458;28;20038;-68
2022/05/10 09:51:30;;;;;;;4.88;2.42;;;23.80;52.40;;;;;;5029818;28;20036;-70
2022/05/10 09:53:57;;;;;;;4.03;2.20;;;23.90;52.80;;;;;;5028833;28;20029;-67
2022/05/10 09:56:30;;;;;;;5.45;2.50;;;23.90;52.60;;;;;;5038063;28;20457;-68
2022/05/10 09:59:00;;;;;;;5.82;2.75;;;24.00;52.60;;;;;;5024886;28;20042;-67
2022/05/10 10:01:44;;;;;;;4.25;2.25;;;24.00;52.70;;;;;;5028463;28;20080;-77
2022/05/10 10:04:20;;;;;;;7.05;3.17;;;24.10;52.80;;;;;;5013358;28;20034;-68
2022/05/10 10:07:03;;;;;;;5.82;2.63;;;24.20;52.60;;;;;;5018013;28;20025;-68
2022/05/10 10:09:38;;;;;;;4.38;2.63;;;24.20;53.10;;;;;;5026711;28;20087;-68
2022/05/10 10:12:06;;;;;;;7.75;2.80;;;24.20;52.00;;;;;;5020065;28;20096;-68
2022/05/10 10:14:43;;;;;;;4.15;2.40;;;24.30;52.10;;;;;;5030669;28;20116;-68
2022/05/10 10:17:19;;;;;;;5.63;2.88;;;24.30;52.20;;;;;;5030548;28;20420;-68
2022/05/10 10:19:51;;;;;;;6.18;2.80;;;24.40;52.20;;;;;;5014176;28;20030;-68
2022/05/10 10:22:44;;;;;;;4.82;2.63;;;24.50;52.10;;;;;;5013911;28;20059;-68
2022/05/10 10:25:15;;;;;;;6.45;2.70;;;24.60;51.70;;;;;;5033008;28;20033;-69
2022/05/10 10:27:49;;;;;;;5.78;3.10;;;24.70;51.80;;;;;;5023850;28;20375;-70
2022/05/10 10:30:37;;;;;;;5.60;2.67;;;24.70;51.80;;;;;;5026835;28;20115;-67
2022/05/10 10:33:13;;;;;;;4.85;2.72;;;24.80;51.80;;;;;;5018046;28;20481;-68
2022/05/10 10:35:53;;;;;;;4.45;2.33;;;24.90;52.00;;;;;;5040065;28;20057;-67
2022/05/10 10:38:36;;;;;;;6.47;2.47;;;25.00;51.50;;;;;;5011364;28;20053;-68
2022/05/10 10:41:07;;;;;;;4.82;2.90;;;25.10;51.60;;;;;;5025502;28;20048;-68
2022/05/10 10:43:39;;;;;;;6.68;2.30;;;25.10;50.80;;;;;;5028259;28;20025;-68
2022/05/10 10:46:33;;;;;;;5.43;2.45;;;25.20;50.80;;;;;;5026635;28;20057;-69
2022/05/10 10:49:08;;;;;;;7.97;2.50;;;25.30;50.80;;;;;;5027060;28;20400;-69
2022/05/10 10:51:34;;;;;;;5.68;2.60;;;25.40;50.70;;;;;;5033118;28;20033;-68
2022/05/10 10:54:01;;;;;;;4.18;2.30;;;25.50;50.60;;;;;;5032073;28;20419;-68
2022/05/10 10:56:44;;;;;;;4.90;2.80;;;25.50;50.30;;;;;;5039285;28;20499;-68
2022/05/10 10:59:37;;;;;;;5.45;2.60;;;25.60;50.50;;;;;;5030144;28;20036;-68
2022/05/10 11:02:25;;;;;;;5.35;2.40;;;25.60;51.10;;;;;;5033261;28;20129;-68
2022/05/10 11:05:06;;;;;;;5.75;3.03;;;25.70;51.70;;;;;;5015669;28;20037;-68
2022/05/10 11:07:48;;;;;;;4.13;2.72;;;25.70;51.10;;;;;;5041759;28;20424;-69
2022/05/10 11:10:31;;;;;;;6.25;2.92;;;25.80;51.00;;;;;;5030659;28;20033;-69
2022/05/10 11:13:13;;;;;;;5.35;3.20;;;25.80;51.10;;;;;;5039313;28;20036;-68
2022/05/10 11:15:50;;;;;;;5.63;3.00;;;25.90;51.00;;;;;;5033868;28;20021;-69
2022/05/10 11:18:30;;;;;;;4.55;2.80;;;26.00;50.80;;;;;;5024374;28;20539;-69
2022/05/10 11:21:23;;;;;;;6.85;2.83;;;26.10;50.60;;;;;;5025124;28;20058;-69
2022/05/10 11:24:14;;;;;;;5.35;3.50;;;26.10;49.90;;;;;;5030775;28;20307;-68
2022/05/10 11:27:02;;;;;;;4.82;3.20;;;26.20;49.80;;;;;;5033637;28;20025;-68
2022/05/10 11:30:05;;;;;;;8.85;3.20;;;26.20;49.80;;;;;;5034049;28;20064;-68
2022/05/10 11:32:47;;;;;;;4.93;2.50;;;26.30;49.80;;;;;;5032358;28;20034;-68
2022/05/10 11:35:19;;;;;;;4.85;3.05;;;26.30;49.60;;;;;;5048127;28;20430;-68
2022/05/10 11:38:02;;;;;;;5.75;2.92;;;26.40;49.40;;;;;;5034579;28;20086;-68
2022/05/10 11:40:37;;;;;;;4.97;2.90;;;26.40;49.20;;;;;;5034515;28;20496;-68
2022/05/10 11:43:27;;;;;;;6.18;3.65;;;26.40;49.40;;;;;;5034392;28;20022;-68
2022/05/10 11:46:15;;;;;;;4.18;2.95;;;26.50;50.00;;;;;;5034330;28;20595;-68
2022/05/10 11:49:13;;;;;;;5.45;2.97;;;26.60;49.90;;;;;;5038935;28;20038;-68
2022/05/10 11:51:54;;;;;;;5.07;3.35;;;26.70;50.00;;;;;;5033898;28;20546;-68
2022/05/10 11:54:38;;;;;;;2.95;2.30;;;26.80;50.60;;;;;;5032041;28;20101;-68
2022/05/10 11:57:07;;;;;;;6.85;3.38;;;26.80;49.80;;;;;;5028778;28;20481;-68
2022/05/10 11:59:36;;;;;;;4.07;2.70;;;26.80;49.90;;;;;;5013951;28;20477;-68
2022/05/10 12:02:03;;;;;;;4.15;3.00;;;26.90;50.10;;;;;;5039706;28;20029;-68
2022/05/10 12:04:34;;;;;;;4.57;2.60;;;27.00;49.30;;;;;;5013973;28;20059;-68
2022/05/10 12:07:18;;;;;;;5.65;3.00;;;27.10;49.80;;;;;;5042549;28;20037;-68
2022/05/10 12:09:52;;;;;;;5.45;3.00;;;27.10;49.60;;;;;;5053591;28;20384;-68
2022/05/10 12:12:47;;;;;;;4.60;2.70;;;27.20;49.30;;;;;;5040370;28;20029;-68
2022/05/10 12:21:29;;;;;;;5.45;2.67;;;27.30;48.10;;;;;;5015139;28;20026;-68
2022/05/10 12:24:19;;;;;;;4.07;2.60;;;27.40;48.30;;;;;;5031011;28;20033;-67
2022/05/10 12:26:46;;;;;;;3.60;2.55;;;27.40;48.20;;;;;;5032216;28;20128;-68
2022/05/10 12:29:40;;;;;;;4.05;2.85;;;27.40;48.00;;;;;;5014658;28;20042;-68
2022/05/10 12:32:21;;;;;;;9.65;3.42;;;27.50;48.40;;;;;;5022786;28;20041;-68
2022/05/10 12:34:52;;;;;;;4.22;2.58;;;27.60;48.70;;;;;;5031084;28;20061;-68
2022/05/10 12:37:27;;;;;;;4.38;3.03;;;27.70;48.00;;;;;;5031484;28;20393;-68
2022/05/10 12:40:11;;;;;;;4.32;2.88;;;27.80;48.00;;;;;;5022185;28;20034;-67
2022/05/10 12:42:58;;;;;;;3.50;2.50;;;27.90;47.80;;;;;;5018809;28;20384;-68
2022/05/10 12:45:44;;;;;;;5.72;3.00;;;27.90;46.80;;;;;;5030901;28;20061;-68
2022/05/10 12:48:47;;;;;;;7.38;3.05;;;28.00;46.90;;;;;;5029845;28;20480;-68
2022/05/10 12:51:22;;;;;;;4.13;2.60;;;28.10;47.70;;;;;;5028387;28;20041;-68
2022/05/10 12:53:51;;;;;;;5.35;2.95;;;28.10;48.00;;;;;;5016612;28;20477;-68
2022/05/10 12:56:20;;;;;;;6.03;3.45;;;28.10;47.00;;;;;;5026639;28;20036;-67
2022/05/10 12:58:51;;;;;;;4.15;2.97;;;28.10;47.50;;;;;;5026835;28;20072;-67
2022/05/10 13:01:19;;;;;;;4.18;2.85;;;28.10;46.90;;;;;;5012927;28;20054;-68
2022/05/10 13:03:55;;;;;;;4.57;2.63;;;28.20;46.90;;;;;;5030387;28;20025;-68
2022/05/10 13:06:46;;;;;;;4.75;2.70;;;28.20;46.90;;;;;;5052374;28;20071;-67
2022/05/10 13:09:25;;;;;;;6.55;3.30;;;28.30;46.90;;;;;;5022318;28;20125;-68
2022/05/10 13:12:00;;;;;;;4.18;2.78;;;28.40;46.80;;;;;;5030893;28;20033;-68
2022/05/10 13:14:28;;;;;;;8.68;3.50;;;28.60;46.60;;;;;;5030542;28;20029;-68
2022/05/10 13:16:54;;;;;;;4.47;2.78;;;28.70;46.10;;;;;;5038981;28;20037;-68
2022/05/10 13:19:22;;;;;;;9.48;2.85;;;28.80;46.20;;;;;;5014471;28;20033;-68
2022/05/10 13:21:48;;;;;;;8.43;2.65;;;28.90;45.80;;;;;;5015364;28;20091;-68
2022/05/10 13:24:16;;;;;;;5.15;3.00;;;28.90;45.50;;;;;;5032760;28;20764;-68
2022/05/10 13:27:01;;;;;;;3.30;2.80;;;28.90;45.80;;;;;;5021560;28;20032;-68